createdAt,value
2022-10-07T00:00:17.578Z,49.45
2022-10-07T00:01:17.659Z,50.98
2022-10-07T00:02:17.593Z,48.10
2022-10-07T00:03:17.560Z,49.64
2022-10-07T00:04:17.552Z,52.87
2022-10-07T00:05:17.540Z,55.72
2022-10-07T00:06:17.584Z,47.14
2022-10-07T00:07:17.520Z,47.22
2022-10-07T00:08:17.519Z,42.35
2022-10-07T00:09:17.504Z,48.82
2022-10-07T00:10:17.503Z,43.94
2022-10-07T00:11:17.529Z,55.69
2022-10-07T00:12:17.489Z,56.62
2022-10-07T00:13:17.483Z,57.03
2022-10-07T00:14:17.487Z,58.66
2022-10-07T00:15:17.468Z,59.05
2022-10-07T00:16:17.619Z,56.65
2022-10-07T00:17:17.444Z,57.38
2022-10-07T00:18:17.436Z,57.21
2022-10-07T00:19:17.441Z,57.65
2022-10-07T00:20:17.435Z,60.15
2022-10-07T00:21:17.440Z,56.61
2022-10-07T00:22:17.416Z,50.60
2022-10-07T00:23:17.395Z,49.82
2022-10-07T00:24:18.398Z,40.83
2022-10-07T00:25:17.395Z,42.05
2022-10-07T00:26:17.404Z,45.53
2022-10-07T00:27:17.369Z,52.33
2022-10-07T00:28:17.455Z,49.93
2022-10-07T00:29:17.357Z,53.31
2022-10-07T00:30:17.358Z,59.42
2022-10-07T00:31:17.490Z,44.06
2022-10-07T00:32:17.329Z,41.02
2022-10-07T00:33:17.327Z,48.50
2022-10-07T00:34:17.315Z,54.72
2022-10-07T00:35:17.272Z,54.41
2022-10-07T00:36:17.337Z,58.93
2022-10-07T00:37:17.258Z,54.77
2022-10-07T00:38:17.198Z,56.69
2022-10-07T00:39:17.184Z,58.47
2022-10-07T00:40:17.178Z,57.20
2022-10-07T00:41:17.285Z,56.85
2022-10-07T00:42:17.195Z,56.88
2022-10-07T00:43:17.154Z,60.17
2022-10-07T00:44:17.151Z,58.76
2022-10-07T00:45:17.140Z,50.30
2022-10-07T00:46:17.224Z,39.27
2022-10-07T00:47:17.191Z,46.72
2022-10-07T00:48:17.127Z,41.06
2022-10-07T00:49:17.109Z,57.78
2022-10-07T00:50:17.111Z,46.92
2022-10-07T00:51:17.093Z,41.26
2022-10-07T00:52:17.109Z,45.48
2022-10-07T00:53:17.079Z,49.60
2022-10-07T00:54:17.070Z,49.99
2022-10-07T00:55:17.063Z,42.14
2022-10-07T00:56:17.057Z,50.80
2022-10-07T00:57:17.075Z,49.57
2022-10-07T00:58:17.040Z,59.64
2022-10-07T00:59:17.039Z,54.33
2022-10-07T01:00:17.019Z,53.93
2022-10-07T01:01:17.078Z,54.94
2022-10-07T01:02:17.074Z,58.04
2022-10-07T01:03:17.007Z,60.06
2022-10-07T01:04:16.996Z,55.23
2022-10-07T01:05:16.997Z,57.08
2022-10-07T01:06:16.981Z,57.92
2022-10-07T01:07:17.003Z,58.50
2022-10-07T01:08:16.963Z,57.92
2022-10-07T01:09:16.958Z,58.13
2022-10-07T01:10:16.950Z,53.73
2022-10-07T01:11:16.945Z,48.83
2022-10-07T01:12:16.959Z,47.82
2022-10-07T01:13:16.941Z,43.02
2022-10-07T01:14:16.914Z,43.78
2022-10-07T01:15:16.904Z,49.78
2022-10-07T01:16:16.957Z,45.70
2022-10-07T01:17:16.929Z,60.36
2022-10-07T01:18:16.951Z,43.38
2022-10-07T01:19:16.902Z,44.10
2022-10-07T01:20:16.873Z,49.08
2022-10-07T01:21:16.887Z,52.21
2022-10-07T01:22:16.882Z,50.05
2022-10-07T01:23:16.856Z,51.36
2022-10-07T01:24:16.845Z,47.09
2022-10-07T01:25:16.832Z,45.53
2022-10-07T01:26:16.825Z,45.18
2022-10-07T01:27:16.850Z,47.42
2022-10-07T01:28:16.858Z,56.92
2022-10-07T01:29:16.811Z,41.93
2022-10-07T01:30:16.835Z,46.62
2022-10-07T01:31:16.884Z,42.47
2022-10-07T01:32:16.813Z,45.74
2022-10-07T01:33:16.774Z,44.66
2022-10-07T01:34:16.771Z,44.44
2022-10-07T01:35:16.757Z,50.58
2022-10-07T01:36:16.749Z,43.19
2022-10-07T01:37:16.786Z,57.16
2022-10-07T01:38:16.739Z,55.00
2022-10-07T01:39:16.728Z,54.80
2022-10-07T01:40:16.727Z,57.40
2022-10-07T01:41:16.712Z,56.09
2022-10-07T01:42:16.699Z,57.74
2022-10-07T01:43:16.728Z,58.92
2022-10-07T01:44:16.691Z,59.14
2022-10-07T01:45:16.685Z,57.85
2022-10-07T01:46:16.719Z,42.21
2022-10-07T01:47:16.692Z,43.74
2022-10-07T01:48:16.658Z,42.90
2022-10-07T01:49:16.659Z,54.06
2022-10-07T01:50:16.660Z,40.25
2022-10-07T01:51:16.637Z,44.17
2022-10-07T01:52:16.674Z,44.31
2022-10-07T01:53:16.618Z,39.45
2022-10-07T01:54:16.610Z,50.23
2022-10-07T01:55:16.610Z,54.47
2022-10-07T01:56:16.606Z,59.77
2022-10-07T01:57:16.645Z,54.84
2022-10-07T01:58:16.578Z,55.73
2022-10-07T01:59:16.581Z,56.86
2022-10-07T02:00:16.573Z,57.46
2022-10-07T02:01:16.613Z,58.34
2022-10-07T02:02:16.580Z,58.47
2022-10-07T02:03:16.589Z,57.13
2022-10-07T02:04:16.534Z,57.73
2022-10-07T02:05:16.535Z,60.40
2022-10-07T02:06:16.518Z,59.20
2022-10-07T02:07:16.556Z,57.93
2022-10-07T02:08:16.515Z,58.27
2022-10-07T02:09:16.511Z,57.73
2022-10-07T02:10:16.492Z,50.79
2022-10-07T02:11:16.479Z,51.03
2022-10-07T02:12:16.471Z,55.82
2022-10-07T02:13:16.497Z,42.01
2022-10-07T02:14:16.462Z,39.77
2022-10-07T02:15:16.458Z,46.76
2022-10-07T02:16:16.498Z,52.48
2022-10-07T02:17:16.466Z,46.41
2022-10-07T02:18:16.454Z,48.22
2022-10-07T02:19:16.428Z,54.19
2022-10-07T02:20:16.408Z,54.79
2022-10-07T02:21:16.401Z,56.68
2022-10-07T02:22:16.405Z,57.26
2022-10-07T02:23:16.422Z,60.53
2022-10-07T02:24:16.395Z,56.60
2022-10-07T02:25:16.377Z,57.22
2022-10-07T02:26:16.365Z,58.31
2022-10-07T02:27:16.386Z,58.81
2022-10-07T02:28:16.389Z,59.34
2022-10-07T02:29:16.353Z,60.48
2022-10-07T02:30:16.337Z,58.06
2022-10-07T02:31:16.373Z,58.25
2022-10-07T02:32:16.352Z,50.13
2022-10-07T02:33:16.319Z,51.95
2022-10-07T02:34:19.718Z,49.16
2022-10-07T02:35:17.298Z,50.24
2022-10-07T02:36:16.307Z,58.34
2022-10-07T02:37:16.310Z,42.68
2022-10-07T02:38:16.278Z,44.74
2022-10-07T02:39:16.268Z,55.79
2022-10-07T02:40:16.263Z,47.17
2022-10-07T02:41:16.260Z,45.56
2022-10-07T02:42:16.274Z,55.09
2022-10-07T02:43:16.249Z,54.99
2022-10-07T02:44:16.233Z,54.47
2022-10-07T02:45:16.232Z,54.63
2022-10-07T02:46:16.265Z,57.78
2022-10-07T02:47:17.241Z,56.56
2022-10-07T02:48:16.204Z,56.52
2022-10-07T02:49:16.190Z,56.05
2022-10-07T02:50:16.185Z,57.85
2022-10-07T02:51:20.639Z,59.35
2022-10-07T02:52:18.207Z,58.79
2022-10-07T02:53:16.162Z,59.28
2022-10-07T02:54:16.167Z,58.39
2022-10-07T02:55:16.145Z,59.29
2022-10-07T02:56:16.144Z,58.15
2022-10-07T02:57:16.138Z,59.41
2022-10-07T02:58:16.153Z,58.12
2022-10-07T02:59:16.119Z,58.72
2022-10-07T03:00:16.116Z,58.90
2022-10-07T03:01:16.134Z,53.80
2022-10-07T03:02:16.099Z,49.38
2022-10-07T03:03:16.184Z,54.62
2022-10-07T03:04:16.105Z,46.58
2022-10-07T03:05:16.082Z,50.87
2022-10-07T03:06:16.083Z,44.22
2022-10-07T03:07:16.057Z,45.66
2022-10-07T03:08:16.084Z,48.75
2022-10-07T03:09:16.048Z,46.89
2022-10-07T03:10:16.037Z,51.87
2022-10-07T03:11:16.027Z,49.36
2022-10-07T03:12:16.033Z,52.72
2022-10-07T03:13:16.041Z,51.70
2022-10-07T03:14:16.007Z,54.37
2022-10-07T03:15:16.001Z,51.17
2022-10-07T03:16:16.069Z,50.44
2022-10-07T03:17:15.990Z,53.29
2022-10-07T03:18:16.003Z,53.80
2022-10-07T03:19:15.978Z,52.42
2022-10-07T03:20:15.965Z,47.78
2022-10-07T03:21:15.957Z,52.72
2022-10-07T03:22:15.945Z,49.31
2022-10-07T03:23:15.967Z,50.08
2022-10-07T03:24:15.937Z,53.41
2022-10-07T03:25:15.925Z,57.97
2022-10-07T03:26:15.917Z,48.88
2022-10-07T03:27:15.912Z,50.94
2022-10-07T03:28:15.972Z,52.57
2022-10-07T03:29:15.894Z,58.36
2022-10-07T03:30:15.884Z,48.95
2022-10-07T03:31:15.950Z,54.43
2022-10-07T03:32:15.874Z,56.20
2022-10-07T03:33:15.889Z,56.12
2022-10-07T03:34:15.872Z,62.25
2022-10-07T03:35:15.849Z,58.66
2022-10-07T03:36:15.840Z,54.27
2022-10-07T03:37:15.881Z,52.69
2022-10-07T03:38:15.853Z,56.90
2022-10-07T03:39:15.821Z,46.41
2022-10-07T03:40:15.811Z,54.39
2022-10-07T03:41:15.800Z,55.81
2022-10-07T03:42:15.796Z,56.39
2022-10-07T03:43:15.819Z,55.36
2022-10-07T03:44:15.783Z,56.50
2022-10-07T03:45:15.775Z,51.90
2022-10-07T03:46:15.806Z,51.37
2022-10-07T03:47:15.762Z,54.13
2022-10-07T03:48:15.774Z,52.97
2022-10-07T03:49:15.739Z,59.88
2022-10-07T03:50:15.736Z,58.35
2022-10-07T03:51:15.729Z,51.64
2022-10-07T03:52:15.720Z,47.84
2022-10-07T03:53:15.749Z,52.11
2022-10-07T03:54:15.704Z,50.65
2022-10-07T03:55:15.707Z,50.74
2022-10-07T03:56:15.692Z,58.02
2022-10-07T03:57:15.687Z,58.05
2022-10-07T03:58:15.698Z,59.59
2022-10-07T03:59:15.667Z,60.72
2022-10-07T04:00:15.661Z,61.61
2022-10-07T04:01:48.108Z,60.56
2022-10-07T04:02:15.650Z,60.74
2022-10-07T04:03:15.772Z,61.27
2022-10-07T04:04:15.640Z,61.34
2022-10-07T04:05:15.632Z,61.16
2022-10-07T04:06:15.624Z,61.38
2022-10-07T04:07:15.610Z,61.71
2022-10-07T04:08:15.634Z,61.40
2022-10-07T04:09:15.623Z,61.79
2022-10-07T04:10:15.621Z,61.36
2022-10-07T04:11:15.586Z,61.63
2022-10-07T04:12:15.623Z,61.64
2022-10-07T04:13:15.614Z,61.97
2022-10-07T04:14:15.554Z,61.99
2022-10-07T04:15:15.557Z,63.23
2022-10-07T04:16:15.578Z,61.55
2022-10-07T04:17:15.546Z,61.47
2022-10-07T04:18:15.584Z,64.25
2022-10-07T04:19:15.529Z,61.67
2022-10-07T04:20:15.521Z,62.13
2022-10-07T04:21:15.508Z,62.15
2022-10-07T04:22:15.505Z,61.67
2022-10-07T04:23:15.516Z,62.64
2022-10-07T04:24:15.478Z,62.54
2022-10-07T04:25:15.476Z,61.75
2022-10-07T04:26:15.485Z,61.36
2022-10-07T04:27:33.944Z,62.12
2022-10-07T04:28:17.569Z,61.97
2022-10-07T04:29:15.459Z,60.35
2022-10-07T04:30:15.449Z,60.65
2022-10-07T04:31:15.531Z,59.70
2022-10-07T04:32:15.438Z,59.50
2022-10-07T04:33:15.452Z,57.21
2022-10-07T04:34:15.417Z,55.11
2022-10-07T04:35:15.403Z,57.80
2022-10-07T04:36:15.399Z,56.67
2022-10-07T04:37:15.389Z,55.05
2022-10-07T04:38:15.406Z,57.39
2022-10-07T04:39:15.375Z,59.70
2022-10-07T04:40:15.363Z,56.52
2022-10-07T04:41:15.357Z,56.26
2022-10-07T04:42:15.350Z,53.94
2022-10-07T04:43:15.375Z,58.40
2022-10-07T04:44:15.335Z,60.65
2022-10-07T04:45:15.321Z,57.30
2022-10-07T04:46:15.394Z,61.20
2022-10-07T04:47:15.370Z,53.35
2022-10-07T04:48:15.339Z,58.57
2022-10-07T04:49:15.294Z,58.03
2022-10-07T04:50:15.286Z,56.46
2022-10-07T04:51:15.274Z,53.90
2022-10-07T04:52:15.275Z,53.61
2022-10-07T04:53:15.269Z,51.64
2022-10-07T04:54:15.284Z,57.73
2022-10-07T04:55:15.250Z,56.13
2022-10-07T04:56:15.239Z,56.56
2022-10-07T04:57:15.238Z,56.61
2022-10-07T04:58:15.227Z,57.63
2022-10-07T04:59:15.245Z,52.18
2022-10-07T05:00:15.209Z,57.34
2022-10-07T05:01:15.262Z,55.68
2022-10-07T05:02:15.252Z,55.20
2022-10-07T05:03:15.185Z,55.03
2022-10-07T05:04:15.203Z,54.80
2022-10-07T05:05:15.175Z,59.04
2022-10-07T05:06:15.171Z,57.60
2022-10-07T05:07:15.155Z,57.37
2022-10-07T05:08:15.175Z,57.51
2022-10-07T05:09:15.142Z,55.46
2022-10-07T05:10:15.132Z,58.13
2022-10-07T05:11:15.124Z,60.07
2022-10-07T05:12:15.111Z,55.10
2022-10-07T05:13:15.133Z,58.30
2022-10-07T05:14:15.103Z,58.28
2022-10-07T05:15:15.097Z,56.37
2022-10-07T05:16:15.146Z,58.61
2022-10-07T05:17:15.085Z,57.51
2022-10-07T05:18:15.105Z,57.83
2022-10-07T05:19:15.065Z,57.34
2022-10-07T05:20:15.059Z,56.15
2022-10-07T05:21:15.053Z,60.72
2022-10-07T05:22:15.106Z,55.99
2022-10-07T05:23:15.047Z,56.82
2022-10-07T05:24:15.059Z,60.94
2022-10-07T05:25:15.020Z,61.10
2022-10-07T05:26:15.008Z,57.00
2022-10-07T05:27:14.994Z,57.66
2022-10-07T05:28:15.079Z,56.29
2022-10-07T05:29:15.023Z,57.12
2022-10-07T05:30:14.983Z,57.73
2022-10-07T05:31:14.987Z,63.07
2022-10-07T05:32:14.974Z,56.60
2022-10-07T05:33:14.958Z,58.84
2022-10-07T05:34:15.015Z,56.02
2022-10-07T05:35:14.936Z,57.39
2022-10-07T05:36:14.935Z,55.53
2022-10-07T05:37:14.921Z,59.53
2022-10-07T05:38:14.917Z,59.40
2022-10-07T05:39:14.929Z,58.77
2022-10-07T05:40:14.929Z,60.59
2022-10-07T05:41:14.895Z,60.55
2022-10-07T05:42:14.887Z,61.09
2022-10-07T05:43:14.880Z,60.30
2022-10-07T05:44:14.887Z,60.19
2022-10-07T05:45:14.861Z,60.04
2022-10-07T05:46:14.922Z,62.80
2022-10-07T05:47:14.839Z,63.24
2022-10-07T05:48:14.838Z,60.73
2022-10-07T05:49:14.860Z,61.50
2022-10-07T05:50:14.824Z,61.70
2022-10-07T05:51:14.815Z,64.69
2022-10-07T05:52:14.802Z,61.57
2022-10-07T05:53:14.795Z,62.26
2022-10-07T05:54:14.806Z,62.04
2022-10-07T05:55:14.776Z,61.56
2022-10-07T05:56:14.767Z,61.97
2022-10-07T05:57:14.770Z,61.70
2022-10-07T05:58:14.752Z,62.00
2022-10-07T05:59:14.788Z,64.61
2022-10-07T06:00:14.747Z,61.52
2022-10-07T06:01:14.752Z,61.54
2022-10-07T06:02:14.910Z,65.07
2022-10-07T06:03:14.826Z,61.41
2022-10-07T06:04:14.760Z,61.21
2022-10-07T06:05:14.701Z,63.21
2022-10-07T06:06:14.696Z,61.15
2022-10-07T06:07:19.529Z,61.71
2022-10-07T06:08:16.673Z,61.15
2022-10-07T06:09:14.718Z,60.86
2022-10-07T06:10:14.667Z,61.16
2022-10-07T06:11:14.657Z,61.64
2022-10-07T06:12:14.673Z,61.25
2022-10-07T06:13:14.639Z,61.31
2022-10-07T06:14:14.666Z,60.60
2022-10-07T06:15:14.638Z,60.87
2022-10-07T06:16:14.715Z,60.73
2022-10-07T06:17:14.617Z,60.64
2022-10-07T06:18:14.605Z,60.84
2022-10-07T06:19:15.629Z,60.69
2022-10-07T06:20:14.600Z,60.96
2022-10-07T06:21:14.593Z,62.00
2022-10-07T06:22:14.596Z,60.87
2022-10-07T06:23:14.569Z,61.11
2022-10-07T06:24:14.561Z,60.86
2022-10-07T06:25:14.583Z,60.90
2022-10-07T06:26:14.565Z,61.20
2022-10-07T06:27:14.538Z,61.16
2022-10-07T06:28:14.557Z,60.68
2022-10-07T06:29:14.527Z,60.63
2022-10-07T06:30:14.546Z,59.77
2022-10-07T06:31:14.537Z,53.96
2022-10-07T06:32:14.503Z,53.60
2022-10-07T06:33:14.489Z,57.07
2022-10-07T06:34:14.494Z,54.62
2022-10-07T06:35:14.504Z,53.17
2022-10-07T06:36:14.471Z,55.86
2022-10-07T06:37:14.480Z,52.06
2022-10-07T06:38:14.458Z,53.01
2022-10-07T06:39:14.444Z,52.66
2022-10-07T06:40:14.467Z,53.35
2022-10-07T06:41:14.432Z,57.85
2022-10-07T06:42:14.425Z,57.98
2022-10-07T06:43:14.419Z,57.14
2022-10-07T06:44:14.450Z,56.15
2022-10-07T06:45:14.433Z,56.76
2022-10-07T06:46:14.439Z,56.36
2022-10-07T06:47:14.390Z,54.38
2022-10-07T06:48:14.382Z,54.13
2022-10-07T06:49:14.646Z,56.10
2022-10-07T06:50:14.395Z,51.65
2022-10-07T06:51:14.357Z,53.86
2022-10-07T06:52:14.352Z,59.16
2022-10-07T06:53:14.338Z,58.24
2022-10-07T06:54:14.332Z,49.70
2022-10-07T06:55:14.357Z,53.50
2022-10-07T06:56:14.331Z,58.64
2022-10-07T06:57:40.296Z,56.94
2022-10-07T06:58:16.305Z,54.07
2022-10-07T06:59:14.301Z,54.18
2022-10-07T07:00:14.321Z,54.51
2022-10-07T07:01:14.359Z,55.90
2022-10-07T07:02:14.306Z,50.14
2022-10-07T07:03:14.270Z,53.36
2022-10-07T07:04:14.260Z,54.23
2022-10-07T07:05:14.282Z,56.57
2022-10-07T07:06:14.255Z,52.99
2022-10-07T07:07:14.237Z,51.94
2022-10-07T07:08:14.241Z,57.40
2022-10-07T07:09:14.221Z,58.26
2022-10-07T07:10:14.251Z,57.26
2022-10-07T07:11:14.218Z,54.32
2022-10-07T07:12:14.200Z,53.61
2022-10-07T07:13:14.201Z,56.79
2022-10-07T07:14:14.195Z,56.77
2022-10-07T07:15:14.212Z,52.25
2022-10-07T07:16:14.228Z,54.14
2022-10-07T07:17:14.166Z,52.37
2022-10-07T07:18:14.159Z,56.99
2022-10-07T07:19:14.198Z,54.11
2022-10-07T07:20:14.181Z,58.43
2022-10-07T07:21:14.177Z,55.29
2022-10-07T07:22:14.135Z,55.60
2022-10-07T07:23:14.123Z,54.80
2022-10-07T07:24:14.114Z,52.44
2022-10-07T07:25:14.138Z,55.19
2022-10-07T07:26:14.123Z,55.83
2022-10-07T07:27:14.094Z,60.34
2022-10-07T07:28:14.100Z,50.18
2022-10-07T07:29:14.074Z,52.06
2022-10-07T07:30:14.073Z,56.88
2022-10-07T07:31:14.123Z,53.92
2022-10-07T07:32:14.054Z,55.49
2022-10-07T07:33:14.043Z,52.60
2022-10-07T07:34:14.031Z,57.92
2022-10-07T07:35:14.029Z,58.10
2022-10-07T07:36:14.047Z,55.25
2022-10-07T07:37:14.033Z,55.14
2022-10-07T07:38:14.006Z,57.12
2022-10-07T07:39:14.005Z,57.00
2022-10-07T07:40:13.988Z,54.80
2022-10-07T07:41:14.010Z,55.14
2022-10-07T07:42:13.978Z,58.65
2022-10-07T07:43:13.974Z,54.83
2022-10-07T07:44:13.959Z,57.55
2022-10-07T07:45:13.960Z,55.94
2022-10-07T07:46:13.994Z,51.94
2022-10-07T07:47:13.941Z,56.49
2022-10-07T07:48:13.951Z,59.53
2022-10-07T07:49:13.954Z,54.50
2022-10-07T07:50:13.927Z,49.26
2022-10-07T07:51:14.934Z,56.19
2022-10-07T07:52:13.917Z,57.29
2022-10-07T07:53:14.912Z,59.90
2022-10-07T07:54:13.915Z,52.33
2022-10-07T07:55:13.878Z,54.26
2022-10-07T07:56:13.894Z,52.18
2022-10-07T07:57:13.869Z,54.58
2022-10-07T07:58:13.855Z,53.69
2022-10-07T07:59:13.843Z,58.81
2022-10-07T08:00:13.842Z,57.40
2022-10-07T08:01:13.909Z,56.94
2022-10-07T08:02:13.854Z,57.26
2022-10-07T08:03:13.811Z,55.44
2022-10-07T08:04:13.821Z,55.32
2022-10-07T08:05:13.803Z,54.94
2022-10-07T08:06:13.832Z,56.23
2022-10-07T08:07:13.777Z,58.26
2022-10-07T08:08:13.774Z,57.50
2022-10-07T08:09:13.770Z,56.27
2022-10-07T08:10:13.757Z,57.22
2022-10-07T08:11:13.777Z,56.34
2022-10-07T08:12:13.742Z,58.33
2022-10-07T08:13:13.737Z,59.88
2022-10-07T08:14:13.724Z,56.62
2022-10-07T08:15:13.730Z,56.46
2022-10-07T08:16:13.783Z,56.18
2022-10-07T08:17:13.717Z,58.80
2022-10-07T08:18:13.697Z,57.59
2022-10-07T08:19:13.690Z,53.95
2022-10-07T08:20:13.791Z,52.53
2022-10-07T08:21:13.709Z,52.72
2022-10-07T08:22:13.689Z,53.26
2022-10-07T08:23:13.656Z,57.72
2022-10-07T08:24:13.645Z,57.38
2022-10-07T08:25:13.638Z,56.81
2022-10-07T08:26:13.637Z,57.69
2022-10-07T08:27:13.649Z,58.07
2022-10-07T08:28:13.668Z,58.23
2022-10-07T08:29:13.617Z,54.10
2022-10-07T08:30:13.599Z,56.82
2022-10-07T08:31:13.623Z,55.61
2022-10-07T08:32:13.611Z,59.63
2022-10-07T08:33:13.580Z,55.48
2022-10-07T08:34:13.578Z,56.72
2022-10-07T08:35:13.560Z,57.71
2022-10-07T08:36:13.556Z,60.43
2022-10-07T08:37:13.588Z,57.46
2022-10-07T08:38:14.584Z,59.05
2022-10-07T08:39:14.554Z,56.40
2022-10-07T08:40:13.534Z,57.08
2022-10-07T08:41:13.508Z,59.12
2022-10-07T08:42:13.625Z,56.82
2022-10-07T08:43:13.514Z,58.28
2022-10-07T08:44:16.778Z,56.74
2022-10-07T08:45:14.480Z,55.72
2022-10-07T08:46:13.534Z,60.80
2022-10-07T08:47:13.511Z,56.84
2022-10-07T08:48:13.466Z,55.65
2022-10-07T08:49:13.463Z,56.25
2022-10-07T08:50:18.306Z,57.64
2022-10-07T08:51:15.444Z,56.27
2022-10-07T08:52:13.465Z,56.34
2022-10-07T08:53:13.432Z,57.58
2022-10-07T08:54:13.430Z,55.92
2022-10-07T08:55:13.414Z,56.79
2022-10-07T08:56:13.405Z,54.39
2022-10-07T08:57:13.412Z,55.05
2022-10-07T08:58:14.393Z,58.28
2022-10-07T08:59:13.392Z,60.39
2022-10-07T09:00:13.379Z,56.44
2022-10-07T09:01:13.395Z,55.83
2022-10-07T09:02:13.412Z,58.08
2022-10-07T09:03:13.346Z,58.98
2022-10-07T09:04:13.347Z,55.64
2022-10-07T09:05:13.336Z,56.22
2022-10-07T09:06:13.323Z,58.62
2022-10-07T09:07:13.346Z,56.26
2022-10-07T09:08:13.317Z,56.47
2022-10-07T09:09:13.311Z,57.07
2022-10-07T09:10:13.305Z,55.73
2022-10-07T09:11:13.294Z,56.33
2022-10-07T09:12:13.305Z,58.22
2022-10-07T09:13:13.276Z,58.51
2022-10-07T09:14:13.272Z,58.07
2022-10-07T09:15:13.253Z,58.52
2022-10-07T09:16:13.364Z,58.43
2022-10-07T09:17:13.268Z,54.99
2022-10-07T09:18:13.234Z,56.09
2022-10-07T09:19:13.227Z,60.96
2022-10-07T09:20:13.215Z,56.25
2022-10-07T09:21:13.333Z,57.47
2022-10-07T09:22:13.223Z,57.89
2022-10-07T09:23:13.194Z,52.81
2022-10-07T09:24:13.180Z,54.38
2022-10-07T09:25:14.187Z,57.71
2022-10-07T09:26:13.169Z,55.74
2022-10-07T09:27:13.190Z,54.73
2022-10-07T09:28:13.193Z,53.47
2022-10-07T09:29:13.148Z,60.90
2022-10-07T09:30:13.136Z,57.68
2022-10-07T09:31:13.169Z,53.85
2022-10-07T09:32:13.158Z,53.67
2022-10-07T09:33:13.120Z,57.47
2022-10-07T09:34:13.123Z,55.86
2022-10-07T09:35:13.113Z,55.84
2022-10-07T09:36:13.093Z,55.95
2022-10-07T09:37:13.102Z,59.08
2022-10-07T09:38:13.108Z,58.81
2022-10-07T09:39:13.069Z,61.96
2022-10-07T09:40:13.060Z,57.00
2022-10-07T09:41:13.057Z,60.05
2022-10-07T09:42:13.040Z,56.68
2022-10-07T09:43:13.060Z,53.61
2022-10-07T09:44:13.026Z,58.96
2022-10-07T09:45:13.059Z,54.86
2022-10-07T09:46:13.042Z,56.39
2022-10-07T09:47:12.998Z,57.64
2022-10-07T09:48:13.025Z,59.01
2022-10-07T09:49:12.991Z,56.10
2022-10-07T09:50:12.982Z,56.96
2022-10-07T09:51:12.965Z,53.33
2022-10-07T09:52:12.968Z,59.15
2022-10-07T09:53:12.981Z,63.34
2022-10-07T09:54:12.958Z,54.44
2022-10-07T09:55:12.945Z,58.07
2022-10-07T09:56:12.929Z,63.17
2022-10-07T09:57:18.191Z,58.51
2022-10-07T09:58:14.942Z,56.83
2022-10-07T09:59:12.900Z,60.93
2022-10-07T10:00:12.909Z,56.95
2022-10-07T10:01:12.893Z,55.03
2022-10-07T10:02:44.943Z,56.40
2022-10-07T10:03:12.919Z,56.75
2022-10-07T10:04:12.862Z,57.22
2022-10-07T10:05:12.855Z,58.40
2022-10-07T10:06:12.852Z,58.47
2022-10-07T10:07:12.836Z,56.43
2022-10-07T10:08:12.855Z,55.78
2022-10-07T10:09:15.773Z,55.44
2022-10-07T10:10:13.841Z,61.53
2022-10-07T10:11:12.823Z,58.97
2022-10-07T10:12:12.804Z,57.54
2022-10-07T10:13:12.826Z,55.95
2022-10-07T10:14:12.791Z,56.94
2022-10-07T10:15:12.781Z,57.13
2022-10-07T10:16:12.815Z,56.24
2022-10-07T10:17:12.764Z,57.01
2022-10-07T10:18:12.791Z,55.24
2022-10-07T10:19:12.745Z,55.97
2022-10-07T10:20:12.748Z,57.53
2022-10-07T10:21:12.732Z,58.49
2022-10-07T10:22:12.730Z,55.87
2022-10-07T10:23:12.746Z,56.87
2022-10-07T10:24:12.710Z,56.52
2022-10-07T10:25:12.706Z,60.58
2022-10-07T10:26:12.722Z,56.10
2022-10-07T10:27:12.685Z,55.41
2022-10-07T10:28:12.700Z,56.88
2022-10-07T10:29:12.673Z,60.38
2022-10-07T10:30:12.667Z,57.16
2022-10-07T10:31:12.729Z,55.20
2022-10-07T10:32:12.648Z,55.34
2022-10-07T10:33:12.638Z,54.22
2022-10-07T10:34:12.638Z,55.77
2022-10-07T10:35:12.634Z,55.95
2022-10-07T10:36:12.645Z,53.64
2022-10-07T10:37:14.649Z,57.61
2022-10-07T10:38:13.598Z,57.53
2022-10-07T10:39:12.592Z,57.39
2022-10-07T10:40:12.587Z,58.64
2022-10-07T10:41:12.600Z,56.84
2022-10-07T10:42:12.570Z,54.99
2022-10-07T10:43:12.559Z,58.75
2022-10-07T10:44:12.553Z,54.80
2022-10-07T10:45:12.610Z,53.43
2022-10-07T10:46:12.609Z,58.66
2022-10-07T10:47:12.535Z,57.03
2022-10-07T10:48:12.527Z,57.13
2022-10-07T10:49:12.514Z,55.70
2022-10-07T10:50:12.512Z,56.01
2022-10-07T10:51:12.525Z,54.49
2022-10-07T10:52:13.568Z,54.07
2022-10-07T10:53:13.486Z,58.59
2022-10-07T10:54:12.488Z,56.88
2022-10-07T10:55:12.488Z,55.47
2022-10-07T10:56:12.490Z,56.30
2022-10-07T10:57:12.454Z,56.50
2022-10-07T10:58:12.441Z,56.99
2022-10-07T10:59:12.441Z,56.70
2022-10-07T11:00:12.424Z,58.00
2022-10-07T11:01:12.438Z,56.66
2022-10-07T11:02:12.447Z,57.71
2022-10-07T11:03:12.449Z,57.06
2022-10-07T11:04:12.391Z,58.03
2022-10-07T11:05:12.384Z,56.70
2022-10-07T11:06:12.407Z,60.29
2022-10-07T11:07:12.371Z,57.17
2022-10-07T11:08:12.366Z,55.96
2022-10-07T11:09:12.351Z,58.87
2022-10-07T11:10:12.344Z,57.97
2022-10-07T11:11:12.361Z,55.88
2022-10-07T11:12:12.335Z,59.88
2022-10-07T11:13:12.319Z,57.35
2022-10-07T11:14:12.316Z,55.38
2022-10-07T11:15:12.311Z,58.15
2022-10-07T11:16:12.367Z,57.43
2022-10-07T11:17:12.292Z,58.95
2022-10-07T11:18:12.280Z,56.72
2022-10-07T11:19:12.271Z,55.04
2022-10-07T11:20:12.261Z,55.41
2022-10-07T11:21:12.289Z,58.93
2022-10-07T11:22:12.248Z,58.12
2022-10-07T11:23:12.247Z,54.52
2022-10-07T11:24:12.237Z,54.98
2022-10-07T11:25:12.262Z,59.27
2022-10-07T11:26:12.222Z,57.90
2022-10-07T11:27:12.210Z,56.25
2022-10-07T11:28:12.249Z,55.89
2022-10-07T11:29:12.198Z,55.42
2022-10-07T11:30:12.214Z,58.06
2022-10-07T11:31:12.211Z,57.11
2022-10-07T11:32:12.174Z,57.07
2022-10-07T11:33:12.281Z,57.52
2022-10-07T11:34:12.189Z,57.50
2022-10-07T11:35:12.182Z,56.07
2022-10-07T11:36:12.144Z,58.17
2022-10-07T11:37:12.144Z,56.27
2022-10-07T11:38:12.126Z,58.85
2022-10-07T11:39:12.128Z,53.86
2022-10-07T11:40:12.163Z,57.80
2022-10-07T11:41:12.101Z,55.86
2022-10-07T11:42:12.102Z,57.39
2022-10-07T11:43:12.093Z,53.44
2022-10-07T11:44:12.079Z,55.56
2022-10-07T11:45:12.099Z,54.00
2022-10-07T11:46:12.166Z,57.74
2022-10-07T11:47:12.060Z,58.54
2022-10-07T11:48:12.044Z,58.71
2022-10-07T11:49:12.050Z,57.65
2022-10-07T11:50:12.056Z,57.37
2022-10-07T11:51:12.028Z,60.40
2022-10-07T11:52:12.017Z,58.05
2022-10-07T11:53:12.011Z,56.15
2022-10-07T11:54:11.996Z,54.12
2022-10-07T11:55:12.020Z,57.97
2022-10-07T11:56:11.994Z,56.47
2022-10-07T11:57:11.977Z,60.93
2022-10-07T11:58:11.973Z,58.26
2022-10-07T11:59:11.975Z,55.42
2022-10-07T12:00:11.987Z,55.24
2022-10-07T12:01:11.949Z,54.33
2022-10-07T12:02:15.687Z,54.56
2022-10-07T12:03:13.033Z,55.07
2022-10-07T12:04:11.930Z,56.43
2022-10-07T12:05:11.952Z,55.12
2022-10-07T12:06:11.916Z,52.20
2022-10-07T12:07:11.902Z,59.17
2022-10-07T12:08:11.898Z,59.16
2022-10-07T12:09:11.892Z,57.41
2022-10-07T12:10:11.927Z,54.96
2022-10-07T12:11:11.876Z,58.82
2022-10-07T12:12:11.869Z,55.16
2022-10-07T12:13:11.856Z,56.31
2022-10-07T12:14:11.846Z,59.00
2022-10-07T12:15:11.869Z,58.68
2022-10-07T12:16:11.921Z,56.51
2022-10-07T12:17:11.822Z,58.37
2022-10-07T12:18:11.815Z,55.53
2022-10-07T12:19:11.807Z,56.89
2022-10-07T12:20:11.834Z,56.10
2022-10-07T12:21:11.799Z,54.99
2022-10-07T12:22:11.791Z,56.43
2022-10-07T12:23:11.777Z,57.37
2022-10-07T12:24:11.784Z,56.30
2022-10-07T12:25:11.801Z,55.79
2022-10-07T12:26:11.805Z,58.76
2022-10-07T12:27:11.745Z,57.37
2022-10-07T12:28:11.784Z,56.81
2022-10-07T12:29:11.733Z,59.69
2022-10-07T12:30:11.722Z,56.63
2022-10-07T12:31:11.775Z,57.68
2022-10-07T12:32:11.713Z,56.84
2022-10-07T12:33:11.701Z,57.25
2022-10-07T12:34:11.725Z,55.38
2022-10-07T12:35:11.685Z,53.89
2022-10-07T12:36:11.716Z,57.30
2022-10-07T12:37:11.672Z,56.64
2022-10-07T12:38:11.681Z,56.18
2022-10-07T12:39:11.668Z,56.81
2022-10-07T12:40:11.659Z,54.68
2022-10-07T12:41:11.709Z,56.38
2022-10-07T12:42:11.636Z,53.29
2022-10-07T12:43:11.621Z,54.49
2022-10-07T12:44:11.621Z,59.99
2022-10-07T12:45:11.613Z,56.78
2022-10-07T12:46:11.696Z,57.88
2022-10-07T12:47:16.255Z,54.81
2022-10-07T12:48:13.592Z,57.58
2022-10-07T12:49:11.587Z,57.92
2022-10-07T12:50:11.572Z,57.47
2022-10-07T12:51:11.600Z,55.24
2022-10-07T12:52:11.564Z,57.89